Welcome to Northern Hawkes Bay. New Zealand.
PWS Header
      nz Flag



Hit Counter


W3C Valid W3C Valid logo


    Wairoa

Select any of the Stations below to visit their websites.










Historic Data from Weather Underground
Select the location of interest below. Wairoa is the default. Please have patience, this Data is slow to load in.
Northern Hawkes Bay Historical Data
Daily Summary for October 21, 2017 Units:  Metric    English   Both
« Previous Day
Next Day »
Daily Weekly Monthly Yearly Custom
  High: Low: Average:
Temperature: 20.1 °C 5.1 °C 12.8 °C
Dew Point: 14.4 °C 4.9 °C 9.7 °C
Humidity: 99% 57% 83%
Wind Speed: 14.8km/h 0.0km/h 4.7km/h
Wind Gust: 23.3km/h - -
Wind- - West
Pressure: 1003.6 hPa 992.4 hPa -
Precipitation: 0.0 mm    
Historical Graphs
 
 
Tabular Data for October 21, 2017
Time Temperature Dew Point Pressure Wind Wind Speed Wind Gust Humidity Rainfall Rate (Hourly) solar
00:03 7.4 °C 6.9 °C 1003.6 hPa North 5.0 km/h 7.2 km/h 97% 0.0 mm 0 W/m2
00:08 7.3 °C 6.8 °C 1003.6 hPa NW 3.5 km/h 7.2 km/h 97% 0.0 mm 0 W/m2
00:13 7.3 °C 6.8 °C 1003.3 hPa NW 2.6 km/h 7.2 km/h 97% 0.0 mm 0 W/m2
00:18 7.3 °C 6.8 °C 1003.3 hPa NNW 2.6 km/h 6.1 km/h 97% 0.0 mm 0 W/m2
00:23 7.3 °C 6.8 °C 1003.3 hPa NW 3.5 km/h 7.2 km/h 97% 0.0 mm 0 W/m2
00:28 7.2 °C 6.8 °C 1002.9 hPa NW 5.0 km/h 7.2 km/h 97% 0.0 mm 0 W/m2
00:33 7.3 °C 6.8 °C 1002.9 hPa NNW 5.0 km/h 8.7 km/h 97% 0.0 mm 0 W/m2
00:38 7.3 °C 6.8 °C 1002.9 hPa NNW 3.5 km/h 8.7 km/h 97% 0.0 mm 0 W/m2
00:43 7.2 °C 6.8 °C 1002.9 hPa NNW 3.5 km/h 8.7 km/h 97% 0.0 mm 0 W/m2
00:48 7.2 °C 6.8 °C 1002.6 hPa NNW 5.0 km/h 9.7 km/h 97% 0.0 mm 0 W/m2
00:53 7.3 °C 6.8 °C 1002.6 hPa NNW 3.5 km/h 9.7 km/h 97% 0.0 mm 0 W/m2
00:58 7.2 °C 6.8 °C 1002.6 hPa NNW 3.5 km/h 8.7 km/h 97% 0.0 mm 0 W/m2
01:03 7.2 °C 6.8 °C 1002.6 hPa NNW 3.5 km/h 6.1 km/h 97% 0.0 mm 0 W/m2
01:08 7.1 °C 6.7 °C 1002.6 hPa NNW 3.5 km/h 7.2 km/h 97% 0.0 mm 0 W/m2
01:13 7.1 °C 6.7 °C 1002.3 hPa NNW 3.5 km/h 7.2 km/h 97% 0.0 mm 0 W/m2
01:18 7.1 °C 6.7 °C 1001.9 hPa NNW 6.1 km/h 8.7 km/h 97% 0.0 mm 0 W/m2
01:23 7.1 °C 6.7 °C 1001.9 hPa NNW 5.0 km/h 8.7 km/h 97% 0.0 mm 0 W/m2
01:28 7.0 °C 6.6 °C 1001.9 hPa NW 3.5 km/h 7.2 km/h 97% 0.0 mm 0 W/m2
01:33 6.9 °C 6.6 °C 1001.6 hPa NW 5.0 km/h 8.7 km/h 98% 0.0 mm 0 W/m2
01:38 6.9 °C 6.6 °C 1001.6 hPa NNW 5.0 km/h 8.7 km/h 98% 0.0 mm 0 W/m2
01:43 6.9 °C 6.6 °C 1001.6 hPa NW 3.5 km/h 8.7 km/h 98% 0.0 mm 0 W/m2
01:48 6.9 °C 6.6 °C 1001.2 hPa NW 2.6 km/h 8.7 km/h 98% 0.0 mm 0 W/m2
01:53 6.8 °C 6.5 °C 1001.2 hPa NW 6.1 km/h 8.7 km/h 98% 0.0 mm 0 W/m2
01:58 6.8 °C 6.5 °C 1001.2 hPa NW 3.5 km/h 8.7 km/h 98% 0.0 mm 0 W/m2
02:03 6.7 °C 6.4 °C 1001.2 hPa NNW 2.6 km/h 7.2 km/h 98% 0.0 mm 0 W/m2
02:09 6.6 °C 6.3 °C 1000.9 hPa NNW 3.5 km/h 7.2 km/h 98% 0.0 mm 0 W/m2
02:30 6.4 °C 6.1 °C 1000.6 hPa NNW 5.0 km/h 8.7 km/h 98% 0.0 mm 0 W/m2
02:36 6.4 °C 6.1 °C 1000.2 hPa NNW 3.5 km/h 8.7 km/h 98% 0.0 mm 0 W/m2
02:41 6.4 °C 6.1 °C 1000.2 hPa North 5.0 km/h 8.7 km/h 98% 0.0 mm 0 W/m2
02:46 6.4 °C 6.1 °C 1000.2 hPa NNW 3.5 km/h 8.7 km/h 98% 0.0 mm 0 W/m2
02:51 6.4 °C 6.1 °C 999.9 hPa NNW 5.0 km/h 9.7 km/h 98% 0.0 mm 0 W/m2
02:56 6.4 °C 6.1 °C 999.9 hPa NNW 5.0 km/h 9.7 km/h 98% 0.0 mm 0 W/m2
03:01 6.2 °C 5.9 °C 999.9 hPa NNW 5.0 km/h 8.7 km/h 98% 0.0 mm 0 W/m2
03:06 6.2 °C 5.9 °C 999.5 hPa NNW 5.0 km/h 8.7 km/h 98% 0.0 mm 0 W/m2
03:11 6.2 °C 5.9 °C 999.5 hPa NNW 6.1 km/h 8.7 km/h 98% 0.0 mm 0 W/m2
03:16 6.2 °C 5.9 °C 999.5 hPa NW 6.1 km/h 8.7 km/h 98% 0.0 mm 0 W/m2
03:21 6.2 °C 5.9 °C 999.5 hPa NW 7.2 km/h 9.7 km/h 98% 0.0 mm 0 W/m2
03:26 6.1 °C 5.8 °C 999.5 hPa NNW 6.1 km/h 9.7 km/h 98% 0.0 mm 0 W/m2
03:31 6.1 °C 5.8 °C 999.5 hPa NNW 5.0 km/h 9.7 km/h 98% 0.0 mm 0 W/m2
03:37 6.1 °C 5.8 °C 999.5 hPa NNW 5.0 km/h 8.7 km/h 98% 0.0 mm 0 W/m2
03:42 6.1 °C 5.8 °C 999.5 hPa NNW 5.0 km/h 8.7 km/h 98% 0.0 mm 0 W/m2
03:47 6.1 °C 5.8 °C 999.2 hPa NW 7.2 km/h 9.7 km/h 98% 0.0 mm 0 W/m2
03:52 6.1 °C 5.8 °C 999.2 hPa NW 7.2 km/h 9.7 km/h 98% 0.0 mm 0 W/m2
03:57 6.1 °C 5.8 °C 999.2 hPa NNW 7.2 km/h 9.7 km/h 98% 0.0 mm 0 W/m2
04:02 6.1 °C 5.8 °C 999.2 hPa North 6.1 km/h 9.7 km/h 98% 0.0 mm 0 W/m2
04:07 5.9 °C 5.8 °C 998.9 hPa NNW 6.1 km/h 9.7 km/h 99% 0.0 mm 0 W/m2
04:12 5.9 °C 5.8 °C 998.9 hPa NNW 5.0 km/h 8.7 km/h 99% 0.0 mm 0 W/m2
04:17 5.8 °C 5.7 °C 998.9 hPa North 3.5 km/h 8.7 km/h 99% 0.0 mm 0 W/m2
04:22 5.9 °C 5.8 °C 998.5 hPa NNW 3.5 km/h 8.7 km/h 99% 0.0 mm 0 W/m2
04:27 5.9 °C 5.8 °C 998.5 hPa NNW 2.6 km/h 7.2 km/h 99% 0.0 mm 0 W/m2
04:32 5.8 °C 5.7 °C 998.5 hPa NNW 6.1 km/h 8.7 km/h 99% 0.0 mm 0 W/m2
04:37 5.7 °C 5.6 °C 998.5 hPa NW 6.1 km/h 9.7 km/h 99% 0.0 mm 0 W/m2
04:42 5.6 °C 5.4 °C 998.2 hPa NNW 5.0 km/h 9.7 km/h 99% 0.0 mm 0 W/m2
04:47 5.5 °C 5.3 °C 998.2 hPa NNW 6.1 km/h 8.7 km/h 99% 0.0 mm 0 W/m2
04:52 5.4 °C 5.3 °C 998.2 hPa NW 6.1 km/h 8.7 km/h 99% 0.0 mm 0 W/m2
04:57 5.4 °C 5.3 °C 997.9 hPa NNW 3.5 km/h 8.7 km/h 99% 0.0 mm 0 W/m2
05:02 5.3 °C 5.2 °C 997.9 hPa NNW 6.1 km/h 8.7 km/h 99% 0.0 mm 0 W/m2
05:07 5.2 °C 5.1 °C 997.9 hPa NW 7.2 km/h 9.7 km/h 99% 0.0 mm 0 W/m2
05:12 5.2 °C 5.1 °C 997.9 hPa NNW 7.2 km/h 9.7 km/h 99% 0.0 mm 0 W/m2
05:17 5.2 °C 5.1 °C 997.9 hPa NNW 2.6 km/h 9.7 km/h 99% 0.0 mm 0 W/m2
05:22 5.2 °C 5.1 °C 997.9 hPa NNW 3.5 km/h 9.7 km/h 99% 0.0 mm 0 W/m2
05:27 5.2 °C 5.1 °C 997.9 hPa NNW 5.0 km/h 8.7 km/h 99% 0.0 mm 0 W/m2
05:32 5.3 °C 5.2 °C 997.9 hPa NNW 3.5 km/h 8.7 km/h 99% 0.0 mm 0 W/m2
05:37 5.2 °C 5.1 °C 997.9 hPa NNW 5.0 km/h 8.7 km/h 99% 0.0 mm 0 W/m2
05:42 5.2 °C 5.1 °C 997.5 hPa NW 3.5 km/h 8.7 km/h 99% 0.0 mm 0 W/m2
05:47 5.2 °C 5.1 °C 997.9 hPa NW 5.0 km/h 8.7 km/h 99% 0.0 mm 0 W/m2
05:52 5.2 °C 5.1 °C 997.5 hPa NNW 5.0 km/h 8.7 km/h 99% 0.0 mm 0 W/m2
05:57 5.2 °C 5.1 °C 997.5 hPa NNW 5.0 km/h 8.7 km/h 99% 0.0 mm 0 W/m2
06:02 5.2 °C 5.1 °C 997.5 hPa NNW 6.1 km/h 8.7 km/h 99% 0.0 mm 0 W/m2
06:07 5.1 °C 4.9 °C 997.2 hPa NNW 5.0 km/h 8.7 km/h 99% 0.0 mm 0 W/m2
06:12 5.1 °C 4.9 °C 997.5 hPa NW 5.0 km/h 8.7 km/h 99% 0.0 mm 0 W/m2
06:17 5.1 °C 4.9 °C 997.2 hPa NNW 6.1 km/h 8.7 km/h 99% 0.0 mm 0 W/m2
06:22 5.2 °C 5.1 °C 997.5 hPa North 3.5 km/h 9.7 km/h 99% 0.0 mm 2 W/m2
06:27 5.2 °C 5.1 °C 997.2 hPa NNW 7.2 km/h 13.4 km/h 99% 0.0 mm 4 W/m2
06:32 5.3 °C 5.2 °C 997.2 hPa NW 8.7 km/h 13.4 km/h 99% 0.0 mm 7 W/m2
06:37 5.3 °C 5.2 °C 997.5 hPa NW 5.0 km/h 12.2 km/h 99% 0.0 mm 12 W/m2
06:42 5.3 °C 5.2 °C 997.5 hPa NNW 2.6 km/h 12.2 km/h 99% 0.0 mm 18 W/m2
06:47 5.4 °C 5.3 °C 997.2 hPa NNW 3.5 km/h 9.7 km/h 99% 0.0 mm 22 W/m2
06:52 5.4 °C 5.3 °C 997.2 hPa NNW 5.0 km/h 9.7 km/h 99% 0.0 mm 54 W/m2
06:57 5.6 °C 5.4 °C 997.2 hPa NNW 8.7 km/h 9.7 km/h 99% 0.0 mm 58 W/m2
07:02 5.6 °C 5.4 °C 997.2 hPa NNW 8.7 km/h 13.4 km/h 99% 0.0 mm 49 W/m2
07:07 5.7 °C 5.6 °C 997.5 hPa NW 8.7 km/h 13.4 km/h 99% 0.0 mm 80 W/m2
07:12 5.9 °C 5.8 °C 997.2 hPa NW 6.1 km/h 12.2 km/h 99% 0.0 mm 100 W/m2
07:17 6.2 °C 5.9 °C 997.5 hPa NNW 8.7 km/h 12.2 km/h 98% 0.0 mm 115 W/m2
07:22 6.3 °C 6.0 °C 997.5 hPa NNW 6.1 km/h 12.2 km/h 98% 0.0 mm 123 W/m2
07:27 6.5 °C 6.2 °C 997.5 hPa NW 8.7 km/h 13.4 km/h 98% 0.0 mm 131 W/m2
07:33 6.7 °C 6.4 °C 997.2 hPa NNW 9.7 km/h 13.4 km/h 98% 0.0 mm 140 W/m2
07:38 6.9 °C 6.6 °C 997.2 hPa NNW 8.7 km/h 13.4 km/h 98% 0.0 mm 147 W/m2
07:43 7.1 °C 6.7 °C 997.2 hPa NNW 9.7 km/h 13.4 km/h 97% 0.0 mm 154 W/m2
07:48 7.2 °C 6.8 °C 997.2 hPa NNW 9.7 km/h 13.4 km/h 97% 0.0 mm 162 W/m2
07:53 7.4 °C 6.9 °C 997.5 hPa North 9.7 km/h 13.4 km/h 97% 0.0 mm 170 W/m2
07:58 7.7 °C 7.3 °C 997.2 hPa NNW 8.7 km/h 13.4 km/h 97% 0.0 mm 180 W/m2
08:03 8.0 °C 7.8 °C 996.8 hPa NW 7.2 km/h 13.4 km/h 99% 0.0 mm 187 W/m2
08:13 8.4 °C 8.3 °C 997.2 hPa NNW 5.0 km/h 11.1 km/h 99% 0.0 mm 205 W/m2
08:18 8.8 °C 8.7 °C 997.2 hPa NW 7.2 km/h 11.1 km/h 99% 0.0 mm 213 W/m2
08:23 9.0 °C 8.7 °C 997.5 hPa NW 6.1 km/h 11.1 km/h 98% 0.0 mm 224 W/m2
08:28 9.4 °C 8.9 °C 997.5 hPa NNW 6.1 km/h 9.7 km/h 97% 0.0 mm 236 W/m2
08:33 9.7 °C 9.1 °C 997.5 hPa NNW 2.6 km/h 9.7 km/h 96% 0.0 mm 246 W/m2
08:38 10.5 °C 9.7 °C 997.5 hPa NW 1.1 km/h 9.7 km/h 95% 0.0 mm 258 W/m2
08:43 10.9 °C 9.8 °C 997.5 hPa NW 5.0 km/h 7.2 km/h 93% 0.0 mm 264 W/m2
08:48 10.9 °C 9.3 °C 997.9 hPa NNW 5.0 km/h 8.7 km/h 90% 0.0 mm 269 W/m2
08:53 11.4 °C 9.5 °C 997.9 hPa NNW 5.0 km/h 8.7 km/h 88% 0.0 mm 278 W/m2
08:58 11.9 °C 9.6 °C 997.9 hPa NNW 5.0 km/h 7.2 km/h 86% 0.0 mm 287 W/m2
09:03 12.3 °C 9.7 °C 997.9 hPa NNW 2.6 km/h 7.2 km/h 84% 0.0 mm 295 W/m2
09:08 13.0 °C 10.2 °C 997.5 hPa NNW 3.5 km/h 6.1 km/h 83% 0.0 mm 305 W/m2
09:13 13.3 °C 10.1 °C 997.9 hPa Calm   6.1 km/h 81% 0.0 mm 317 W/m2
09:18 14.2 °C 10.6 °C 997.9 hPa NNW 3.5 km/h 5.0 km/h 79% 0.0 mm 329 W/m2
09:23 14.3 °C 10.3 °C 997.5 hPa North 1.1 km/h 6.1 km/h 77% 0.0 mm 341 W/m2
09:28 14.8 °C 11.0 °C 997.5 hPa Calm   6.1 km/h 78% 0.0 mm 357 W/m2
09:33 15.8 °C 11.4 °C 997.5 hPa East 1.1 km/h 5.0 km/h 75% 0.0 mm 370 W/m2
09:38 16.0 °C 10.9 °C 997.5 hPa SSE 1.1 km/h 5.0 km/h 72% 0.0 mm 382 W/m2
09:43 16.0 °C 10.9 °C 997.5 hPa Calm   7.2 km/h 72% 0.0 mm 395 W/m2
09:48 16.3 °C 11.4 °C 997.2 hPa South 5.0 km/h 7.2 km/h 73% 0.0 mm 408 W/m2
09:53 16.1 °C 11.3 °C 997.2 hPa South 3.5 km/h 7.2 km/h 73% 0.0 mm 419 W/m2
09:58 16.0 °C 11.2 °C 997.2 hPa South 2.6 km/h 7.2 km/h 73% 0.0 mm 431 W/m2
10:03 16.2 °C 11.8 °C 997.2 hPa South 2.6 km/h 7.2 km/h 75% 0.0 mm 445 W/m2
10:08 16.1 °C 11.4 °C 996.8 hPa South 1.1 km/h 8.7 km/h 74% 0.0 mm 455 W/m2
10:13 15.8 °C 11.2 °C 996.8 hPa South 3.5 km/h 9.7 km/h 74% 0.0 mm 465 W/m2
10:18 15.6 °C 11.4 °C 996.8 hPa Calm   9.7 km/h 76% 0.0 mm 477 W/m2
10:23 16.3 °C 11.4 °C 996.8 hPa SSE 3.5 km/h 7.2 km/h 73% 0.0 mm 495 W/m2
10:28 16.4 °C 11.3 °C 997.2 hPa South 2.6 km/h 7.2 km/h 72% 0.0 mm 501 W/m2
10:33 16.8 °C 11.9 °C 996.8 hPa South 5.0 km/h 6.1 km/h 73% 0.0 mm 513 W/m2
10:38 17.2 °C 11.7 °C 996.8 hPa SSE 1.1 km/h 6.1 km/h 70% 0.0 mm 533 W/m2
10:43 17.3 °C 11.3 °C 996.8 hPa SSE 2.6 km/h 6.1 km/h 68% 0.0 mm 544 W/m2
10:48 17.4 °C 11.2 °C 996.5 hPa South 1.1 km/h 6.1 km/h 67% 0.0 mm 562 W/m2
10:53 17.5 °C 11.3 °C 996.5 hPa Calm   6.1 km/h 67% 0.0 mm 575 W/m2
10:58 17.4 °C 11.4 °C 996.5 hPa ESE 1.1 km/h 6.1 km/h 68% 0.0 mm 588 W/m2
11:03 17.5 °C 12.2 °C 996.2 hPa SE 2.6 km/h 7.2 km/h 71% 0.0 mm 600 W/m2
11:08 17.5 °C 11.8 °C 996.2 hPa ESE 2.6 km/h 7.2 km/h 69% 0.0 mm 611 W/m2
11:13 17.8 °C 12.1 °C 996.2 hPa ESE 1.1 km/h 6.1 km/h 69% 0.0 mm 631 W/m2
11:18 18.1 °C 11.9 °C 996.2 hPa Calm   6.1 km/h 67% 0.0 mm 644 W/m2
11:23 18.4 °C 11.9 °C 996.2 hPa SSE 3.5 km/h 6.1 km/h 66% 0.0 mm 661 W/m2
11:40 18.3 °C 11.8 °C 995.8 hPa SSE 3.5 km/h 8.7 km/h 66% 0.0 mm 707 W/m2
11:45 18.3 °C 11.8 °C 995.5 hPa SE 5.0 km/h 8.7 km/h 66% 0.0 mm 717 W/m2
11:50 18.2 °C 11.8 °C 995.5 hPa SSE 3.5 km/h 8.7 km/h 66% 0.0 mm 731 W/m2
11:55 18.3 °C 11.8 °C 995.5 hPa SSE 3.5 km/h 9.7 km/h 66% 0.0 mm 744 W/m2
12:00 18.5 °C 11.8 °C 995.5 hPa SSE 7.2 km/h 11.1 km/h 65% 0.0 mm 756 W/m2
12:05 17.8 °C 10.9 °C 995.1 hPa South 6.1 km/h 12.2 km/h 64% 0.0 mm 759 W/m2
12:10 18.1 °C 10.9 °C 995.1 hPa South 6.1 km/h 12.2 km/h 63% 0.0 mm 768 W/m2
12:15 18.6 °C 10.9 °C 994.8 hPa SSE 2.6 km/h 13.4 km/h 61% 0.0 mm 777 W/m2
12:20 18.6 °C 11.2 °C 994.5 hPa SSE 6.1 km/h 13.4 km/h 62% 0.0 mm 775 W/m2
12:25 18.6 °C 11.7 °C 994.5 hPa SSE 7.2 km/h 12.2 km/h 64% 0.0 mm 778 W/m2
12:30 18.6 °C 11.2 °C 994.5 hPa SSE 2.6 km/h 12.2 km/h 62% 0.0 mm 778 W/m2
12:35 18.7 °C 12.0 °C 994.5 hPa SSE 8.7 km/h 12.2 km/h 65% 0.0 mm 780 W/m2
12:40 18.5 °C 11.8 °C 994.5 hPa South 8.7 km/h 12.2 km/h 65% 0.0 mm 779 W/m2
12:45 18.9 °C 12.2 °C 994.1 hPa South 6.1 km/h 12.2 km/h 65% 0.0 mm 779 W/m2
12:50 19.4 °C 12.2 °C 994.1 hPa SSE 3.5 km/h 11.1 km/h 63% 0.0 mm 782 W/m2
12:56 19.1 °C 12.2 °C 993.8 hPa SSE 7.2 km/h 12.2 km/h 64% 0.0 mm 768 W/m2
13:01 19.0 °C 12.3 °C 993.8 hPa South 11.1 km/h 14.8 km/h 65% 0.0 mm 772 W/m2
13:06 19.0 °C 12.1 °C 993.8 hPa South 3.5 km/h 14.8 km/h 64% 0.0 mm 774 W/m2
13:11 19.5 °C 12.5 °C 993.8 hPa South 8.7 km/h 14.8 km/h 64% 0.0 mm 776 W/m2
13:16 19.4 °C 11.9 °C 993.8 hPa SSE 6.1 km/h 11.1 km/h 62% 0.0 mm 759 W/m2
13:21 19.2 °C 11.8 °C 993.5 hPa SSE 6.1 km/h 12.2 km/h 62% 0.0 mm 754 W/m2
13:38 19.5 °C 12.3 °C 993.1 hPa South 5.0 km/h 17.2 km/h 63% 0.0 mm 742 W/m2
13:43 19.1 °C 11.4 °C 993.5 hPa South 9.7 km/h 17.2 km/h 61% 0.0 mm 732 W/m2
13:48 18.7 °C 11.1 °C 993.1 hPa SSE 7.2 km/h 15.8 km/h 61% 0.0 mm 721 W/m2
13:53 18.8 °C 11.6 °C 993.1 hPa SE 11.1 km/h 18.3 km/h 63% 0.0 mm 714 W/m2
13:58 18.5 °C 11.6 °C 993.1 hPa SE 8.7 km/h 18.3 km/h 64% 0.0 mm 701 W/m2
14:03 18.4 °C 10.8 °C 993.1 hPa SE 6.1 km/h 18.3 km/h 61% 0.0 mm 646 W/m2
14:08 18.4 °C 10.5 °C 993.1 hPa ESE 11.1 km/h 17.2 km/h 60% 0.0 mm 501 W/m2
14:13 18.5 °C 11.1 °C 993.1 hPa ESE 2.6 km/h 15.8 km/h 62% 0.0 mm 530 W/m2
14:18 18.6 °C 11.2 °C 993.1 hPa SE 7.2 km/h 18.3 km/h 62% 0.0 mm 208 W/m2
14:23 18.7 °C 11.1 °C 993.1 hPa SE 5.0 km/h 18.3 km/h 61% 0.0 mm 404 W/m2
14:28 19.1 °C 11.4 °C 992.8 hPa SE 7.2 km/h 18.3 km/h 61% 0.0 mm 370 W/m2
14:33 19.0 °C 11.3 °C 992.8 hPa SSE 6.1 km/h 14.8 km/h 61% 0.0 mm 572 W/m2
14:38 18.9 °C 11.0 °C 992.8 hPa SSE 12.2 km/h 23.3 km/h 60% 0.0 mm 244 W/m2
14:43 19.0 °C 10.6 °C 992.8 hPa SSE 5.0 km/h 23.3 km/h 58% 0.0 mm 461 W/m2
14:48 19.0 °C 10.6 °C 992.8 hPa SSE 11.1 km/h 18.3 km/h 58% 0.0 mm 572 W/m2
14:53 19.3 °C 11.1 °C 992.4 hPa SE 7.2 km/h 18.3 km/h 59% 0.0 mm 589 W/m2
14:58 19.7 °C 11.2 °C 992.8 hPa SE 8.7 km/h 18.3 km/h 58% 0.0 mm 579 W/m2
15:03 20.1 °C 11.3 °C 992.8 hPa SSE 9.7 km/h 17.2 km/h 57% 0.0 mm 570 W/m2
15:08 19.7 °C 11.7 °C 992.8 hPa SSE 9.7 km/h 18.3 km/h 60% 0.0 mm 537 W/m2
15:13 19.4 °C 12.4 °C 992.8 hPa SSE 8.7 km/h 18.3 km/h 64% 0.0 mm 407 W/m2
15:18 19.5 °C 12.5 °C 992.4 hPa SSE 9.7 km/h 15.8 km/h 64% 0.0 mm 293 W/m2
15:23 19.5 °C 12.5 °C 992.8 hPa SSE 6.1 km/h 19.5 km/h 64% 0.0 mm 393 W/m2
15:28 19.9 °C 12.7 °C 992.8 hPa South 5.0 km/h 19.5 km/h 63% 0.0 mm 372 W/m2
15:33 19.5 °C 12.1 °C 992.8 hPa South 8.7 km/h 18.3 km/h 62% 0.0 mm 336 W/m2
15:38 19.3 °C 12.3 °C 992.8 hPa SSE 3.5 km/h 18.3 km/h 64% 0.0 mm 202 W/m2
15:43 19.9 °C 12.9 °C 992.8 hPa SE 5.0 km/h 15.8 km/h 64% 0.0 mm 346 W/m2
15:48 19.8 °C 13.1 °C 992.4 hPa SE 11.1 km/h 17.2 km/h 65% 0.0 mm 321 W/m2
15:53 18.9 °C 12.4 °C 992.8 hPa SSE 9.7 km/h 20.9 km/h 66% 0.0 mm 360 W/m2
15:58 18.7 °C 12.9 °C 992.8 hPa South 8.7 km/h 20.9 km/h 69% 0.0 mm 359 W/m2
16:03 18.4 °C 13.1 °C 992.8 hPa South 8.7 km/h 19.5 km/h 71% 0.0 mm 288 W/m2
16:09 18.5 °C 13.2 °C 992.8 hPa SSW 8.7 km/h 19.5 km/h 71% 0.0 mm 295 W/m2
16:15 18.1 °C 13.0 °C 992.8 hPa South 9.7 km/h 15.8 km/h 72% 0.0 mm 238 W/m2
16:21 17.9 °C 13.4 °C 993.1 hPa South 11.1 km/h 15.8 km/h 75% 0.0 mm 506 W/m2
16:26 18.5 °C 14.4 °C 993.1 hPa South 14.8 km/h 17.2 km/h 77% 0.0 mm 479 W/m2
16:29 18.5 °C 14.0 °C 993.1 hPa SSW 11.1 km/h 17.2 km/h 75% 0.0 mm 161 W/m2
16:30 18.4 °C 13.9 °C 993.1 hPa SSW 11.1 km/h 17.2 km/h 75% 0.0 mm 153 W/m2
16:31 18.1 °C 13.6 °C 993.1 hPa SSW 11.1 km/h 17.2 km/h 75% 0.0 mm 148 W/m2
16:36 17.3 °C 12.8 °C 993.1 hPa SSW 9.7 km/h 17.2 km/h 75% 0.0 mm 212 W/m2
16:40 17.6 °C 13.3 °C 993.1 hPa SSW 7.2 km/h 15.8 km/h 76% 0.0 mm 280 W/m2
16:45 17.9 °C 13.0 °C 993.1 hPa SSW 8.7 km/h 13.4 km/h 73% 0.0 mm 320 W/m2
16:50 18.3 °C 12.7 °C 993.5 hPa South 11.1 km/h 14.8 km/h 70% 0.0 mm 192 W/m2
16:55 17.7 °C 12.4 °C 993.5 hPa South 7.2 km/h 18.3 km/h 71% 0.0 mm 104 W/m2
17:00 17.0 °C 11.9 °C 993.5 hPa SSW 9.7 km/h 18.3 km/h 72% 0.0 mm 103 W/m2
17:05 16.7 °C 12.1 °C 993.5 hPa SW 7.2 km/h 15.8 km/h 74% 0.0 mm 106 W/m2
17:10 16.7 °C 12.1 °C 993.5 hPa SW 3.5 km/h 13.4 km/h 74% 0.0 mm 98 W/m2
17:15 16.7 °C 12.1 °C 993.5 hPa SW 8.7 km/h 12.2 km/h 74% 0.0 mm 92 W/m2
17:20 16.6 °C 11.9 °C 993.5 hPa SSW 5.0 km/h 12.2 km/h 74% 0.0 mm 90 W/m2
17:25 16.5 °C 11.8 °C 993.1 hPa South 1.1 km/h 12.2 km/h 74% 0.0 mm 91 W/m2
17:30 16.6 °C 11.9 °C 993.1 hPa Calm   9.7 km/h 74% 0.0 mm 90 W/m2
17:31 16.7 °C 12.1 °C 993.1 hPa Calm   5.0 km/h 74% 0.0 mm 86 W/m2
17:37 16.7 °C 11.8 °C 993.1 hPa Calm   5.0 km/h 73% 0.0 mm 83 W/m2
17:41 16.7 °C 11.8 °C 993.1 hPa Calm   3.5 km/h 73% 0.0 mm 92 W/m2
17:47 16.9 °C 11.8 °C 993.1 hPa Calm   3.5 km/h 72% 0.0 mm 91 W/m2
17:52 16.9 °C 11.4 °C 993.1 hPa Calm   3.5 km/h 70% 0.0 mm 93 W/m2
17:57 17.2 °C 11.4 °C 993.1 hPa Calm   3.5 km/h 69% 0.0 mm 132 W/m2
18:01 17.5 °C 11.3 °C 993.1 hPa SSW 3.5 km/h 5.0 km/h 67% 0.0 mm 112 W/m2
18:07 17.2 °C 10.3 °C 993.1 hPa SW 2.6 km/h 5.0 km/h 64% 0.0 mm 107 W/m2
18:11 17.2 °C 10.3 °C 993.1 hPa Calm   5.0 km/h 64% 0.0 mm 94 W/m2
18:17 17.3 °C 11.1 °C 993.1 hPa WSW 1.1 km/h 5.0 km/h 67% 0.0 mm 76 W/m2
18:22 17.3 °C 10.9 °C 993.1 hPa Calm   2.6 km/h 66% 0.0 mm 69 W/m2
18:31 17.3 °C 10.9 °C 993.1 hPa Calm   1.1 km/h 66% 0.0 mm 54 W/m2
18:37 17.3 °C 10.7 °C 993.1 hPa Calm   1.1 km/h 65% 0.0 mm 52 W/m2
18:42 17.3 °C 11.1 °C 993.1 hPa Calm   3.5 km/h 67% 0.0 mm 57 W/m2
18:47 17.3 °C 11.3 °C 993.5 hPa Calm   3.5 km/h 68% 0.0 mm 46 W/m2
18:51 17.2 °C 11.4 °C 993.8 hPa Calm   1.1 km/h 69% 0.0 mm 37 W/m2
18:56 16.9 °C 11.4 °C 993.5 hPa Calm   2.6 km/h 70% 0.0 mm 31 W/m2
19:01 16.7 °C 11.4 °C 993.5 hPa Calm   2.6 km/h 71% 0.0 mm 25 W/m2
19:06 16.5 °C 11.4 °C 993.5 hPa Calm   1.1 km/h 72% 0.0 mm 18 W/m2
19:11 16.3 °C 11.3 °C 993.5 hPa Calm     72% 0.0 mm 12 W/m2
19:17 16.1 °C 11.3 °C 993.5 hPa Calm     73% 0.0 mm 8 W/m2
19:21 16.0 °C 11.2 °C 993.5 hPa Calm     73% 0.0 mm 5 W/m2
19:27 15.8 °C 11.4 °C 993.8 hPa Calm     75% 0.0 mm 2 W/m2
19:32 15.5 °C 11.3 °C 993.8 hPa Calm     76% 0.0 mm 0 W/m2
19:36 15.2 °C 11.2 °C 993.8 hPa Calm     77% 0.0 mm 0 W/m2
19:42 15.0 °C 11.0 °C 993.8 hPa Calm     77% 0.0 mm 0 W/m2
19:46 14.9 °C 11.5 °C 993.8 hPa Calm   1.1 km/h 80% 0.0 mm 0 W/m2
19:51 14.9 °C 11.7 °C 994.1 hPa NNW 2.6 km/h 3.5 km/h 81% 0.0 mm 0 W/m2
19:57 14.7 °C 11.8 °C 994.1 hPa NNW 1.1 km/h 5.0 km/h 83% 0.0 mm 0 W/m2
20:01 14.6 °C 11.9 °C 994.1 hPa North 1.1 km/h 5.0 km/h 84% 0.0 mm 0 W/m2
20:06 14.4 °C 11.7 °C 994.1 hPa NW 1.1 km/h 3.5 km/h 84% 0.0 mm 0 W/m2
20:11 14.2 °C 11.7 °C 994.1 hPa NW 1.1 km/h 3.5 km/h 85% 0.0 mm 0 W/m2
20:16 13.8 °C 11.7 °C 994.1 hPa Calm   5.0 km/h 87% 0.0 mm 0 W/m2
20:21 13.6 °C 11.5 °C 994.5 hPa Calm   5.0 km/h 87% 0.0 mm 0 W/m2
20:26 13.6 °C 11.7 °C 994.1 hPa NNW 3.5 km/h 7.2 km/h 88% 0.0 mm 0 W/m2
20:32 13.6 °C 11.7 °C 994.1 hPa NNW 1.1 km/h 7.2 km/h 88% 0.0 mm 0 W/m2
20:37 13.6 °C 11.7 °C 994.1 hPa Calm   5.0 km/h 88% 0.0 mm 0 W/m2
20:41 13.6 °C 11.7 °C 994.1 hPa NNW 2.6 km/h 5.0 km/h 88% 0.0 mm 0 W/m2
20:47 13.5 °C 11.7 °C 994.1 hPa NNW 5.0 km/h 7.2 km/h 89% 0.0 mm 0 W/m2
20:51 13.4 °C 11.6 °C 994.1 hPa NNW 5.0 km/h 7.2 km/h 89% 0.0 mm 0 W/m2
20:56 13.3 °C 11.7 °C 994.1 hPa NW 5.0 km/h 11.1 km/h 90% 0.0 mm 0 W/m2
21:01 13.3 °C 11.7 °C 994.1 hPa NW 2.6 km/h 11.1 km/h 90% 0.0 mm 0 W/m2
21:06 13.2 °C 11.8 °C 994.1 hPa NW 1.1 km/h 9.7 km/h 91% 0.0 mm 0 W/m2
21:11 13.1 °C 11.7 °C 994.1 hPa NNW 3.5 km/h 6.1 km/h 91% 0.0 mm 0 W/m2
21:17 13.1 °C 11.7 °C 994.1 hPa NW 5.0 km/h 7.2 km/h 91% 0.0 mm 0 W/m2
21:21 13.1 °C 11.8 °C 994.1 hPa NNW 1.1 km/h 7.2 km/h 92% 0.0 mm 0 W/m2
21:26 13.0 °C 11.7 °C 994.1 hPa NNW 1.1 km/h 7.2 km/h 92% 0.0 mm 0 W/m2
21:31 12.9 °C 11.6 °C 993.8 hPa Calm   6.1 km/h 92% 0.0 mm 0 W/m2
21:36 12.9 °C 11.8 °C 994.1 hPa North 2.6 km/h 6.1 km/h 93% 0.0 mm 0 W/m2
21:41 13.0 °C 11.9 °C 994.1 hPa North 2.6 km/h 7.2 km/h 93% 0.0 mm 0 W/m2
21:46 13.0 °C 11.9 °C 993.8 hPa North 5.0 km/h 8.7 km/h 93% 0.0 mm 0 W/m2
21:52 13.3 °C 12.2 °C 994.1 hPa North 5.0 km/h 13.4 km/h 93% 0.0 mm 0 W/m2
21:56 13.5 °C 12.2 °C 994.1 hPa NNW 5.0 km/h 13.4 km/h 92% 0.0 mm 0 W/m2
22:01 13.6 °C 12.2 °C 994.1 hPa North 3.5 km/h 13.4 km/h 91% 0.0 mm 0 W/m2
22:07 13.6 °C 12.2 °C 994.1 hPa North 5.0 km/h 8.7 km/h 91% 0.0 mm 0 W/m2
22:12 13.8 °C 12.4 °C 993.8 hPa NNW 5.0 km/h 11.1 km/h 91% 0.0 mm 0 W/m2
22:16 13.8 °C 12.2 °C 993.8 hPa North 5.0 km/h 11.1 km/h 90% 0.0 mm 0 W/m2
22:21 13.8 °C 12.2 °C 993.8 hPa NNW 3.5 km/h 9.7 km/h 90% 0.0 mm 0 W/m2
22:26 13.8 °C 12.0 °C 1000.9 hPa NNW 5.0 km/h 8.7 km/h 89% 0.0 mm 0 W/m2
22:31 14.0 °C 11.9 °C 1001.2 hPa NNW 6.1 km/h 9.7 km/h 87% 0.0 mm 0 W/m2
22:36 14.0 °C 11.9 °C 1001.2 hPa NNW 5.0 km/h 12.2 km/h 87% 0.0 mm 0 W/m2
22:41 13.8 °C 11.8 °C 1000.9 hPa NNW 7.2 km/h 12.2 km/h 88% 0.0 mm 0 W/m2
22:46 13.8 °C 11.8 °C 1000.9 hPa NNW 3.5 km/h 11.1 km/h 88% 0.0 mm 0 W/m2
22:51 13.8 °C 11.8 °C 1000.9 hPa NNW 5.0 km/h 11.1 km/h 88% 0.0 mm 0 W/m2
22:56 13.6 °C 11.7 °C 1000.9 hPa NNW 7.2 km/h 11.1 km/h 88% 0.0 mm 0 W/m2
23:01 13.8 °C 11.8 °C 1000.9 hPa NW 6.1 km/h 11.1 km/h 88% 0.0 mm 0 W/m2
23:06 13.6 °C 11.7 °C 1000.9 hPa NW 5.0 km/h 11.1 km/h 88% 0.0 mm 0 W/m2
23:11 13.6 °C 11.7 °C 1000.9 hPa NW 6.1 km/h 11.1 km/h 88% 0.0 mm 0 W/m2
23:16 13.6 °C 11.7 °C 1000.9 hPa NNW 6.1 km/h 11.1 km/h 88% 0.0 mm 0 W/m2
23:21 13.6 °C 11.7 °C 1000.9 hPa NNW 5.0 km/h 11.1 km/h 88% 0.0 mm 0 W/m2
23:26 13.6 °C 11.7 °C 1001.2 hPa NNW 7.2 km/h 11.1 km/h 88% 0.0 mm 0 W/m2
23:31 13.6 °C 11.5 °C 1000.9 hPa NNW 2.6 km/h 9.7 km/h 87% 0.0 mm 0 W/m2
23:36 13.8 °C 11.7 °C 1000.9 hPa NNW 6.1 km/h 9.7 km/h 87% 0.0 mm 0 W/m2
23:41 14.0 °C 11.5 °C 1000.6 hPa North 6.1 km/h 12.2 km/h 85% 0.0 mm 0 W/m2
23:46 14.1 °C 11.4 °C 1000.9 hPa North 3.5 km/h 12.2 km/h 84% 0.0 mm 0 W/m2
23:51 14.2 °C 11.6 °C 1000.6 hPa NNW 7.2 km/h 11.1 km/h 84% 0.0 mm 0 W/m2
23:56 14.3 °C 11.6 °C 1000.6 hPa NNW 6.1 km/h 11.1 km/h 84% 0.0 mm 0 W/m2
Northern Hawkes Bay. New Zealand Historic Data
Compliments of Weather Underground - 2 mb